Time;durP1;ratioP1;P1;durP2;ratioP2;P2;SDS_P1;SDS_P2;PMS_P1;PMS_P2;Temp;Humidity;BMP_temperature;BMP_pressure;BME280_temperature;BME280_humidity;BME280_pressure;Samples;Min_cycle;Max_cycle;Signal;HPM_P1;HPM_P2
2022/01/17 00:01:18;;;;;;;22.45;10.80;;;;;;;3.46;60.65;101107.22;5383389;32;44604;-67
2022/01/17 00:04:21;;;;;;;25.57;11.47;;;;;;;3.46;61.04;101112.44;5410674;32;34962;-68
2022/01/17 00:07:29;;;;;;;24.23;11.80;;;;;;;3.65;60.62;101118.53;5416809;32;35069;-69
2022/01/17 00:10:31;;;;;;;27.10;12.70;;;;;;;3.12;62.02;101108.03;5410582;32;34206;-68
2022/01/17 00:13:33;;;;;;;25.50;12.03;;;;;;;3.79;59.57;101113.31;5415730;32;34630;-68
2022/01/17 00:16:41;;;;;;;24.00;11.53;;;;;;;3.58;60.50;101116.78;5412031;32;34513;-68
2022/01/17 00:19:46;;;;;;;23.87;11.37;;;;;;;3.49;60.13;101124.59;5413472;32;33798;-68
2022/01/17 00:22:49;;;;;;;23.47;12.00;;;;;;;3.80;59.35;101110.75;5401559;32;44537;-68
2022/01/17 00:25:51;;;;;;;23.83;11.60;;;;;;;3.18;61.27;101108.06;5391690;32;34444;-68
2022/01/17 00:28:53;;;;;;;24.53;12.17;;;;;;;2.87;62.89;101112.28;5409347;32;34820;-67
2022/01/17 00:31:56;;;;;;;26.17;12.30;;;;;;;3.42;61.10;101107.25;5399131;32;35093;-69
2022/01/17 00:34:58;;;;;;;24.97;11.13;;;;;;;4.01;59.83;101109.00;5416114;32;34488;-68
2022/01/17 00:38:00;;;;;;;28.67;12.13;;;;;;;3.77;60.14;101087.34;5412142;32;34728;-68
2022/01/17 00:41:02;;;;;;;25.10;12.47;;;;;;;4.06;59.43;101099.47;5409813;32;35094;-70
2022/01/17 00:44:04;;;;;;;26.40;11.67;;;;;;;4.10;59.17;101108.97;5416656;32;34463;-69
2022/01/17 00:47:07;;;;;;;27.47;12.83;;;;;;;4.54;57.74;101097.63;5407005;32;35263;-69
2022/01/17 00:50:10;;;;;;;24.00;10.47;;;;;;;4.10;58.99;101108.97;5415089;32;35422;-69
2022/01/17 00:53:12;;;;;;;26.37;11.57;;;;;;;4.20;58.86;101113.31;5400188;32;34073;-68
2022/01/17 00:56:14;;;;;;;26.93;11.97;;;;;;;4.73;57.30;101101.03;5379418;32;34376;-67
2022/01/17 00:59:16;;;;;;;25.37;11.93;;;;;;;4.36;57.91;101114.13;5401270;32;45441;-68
2022/01/17 01:02:20;;;;;;;27.03;12.20;;;;;;;4.60;57.92;101106.28;5404298;32;34955;-70
2022/01/17 01:05:23;;;;;;;27.33;12.07;;;;;;;3.61;60.55;101105.53;5413102;32;35769;-68
2022/01/17 01:08:25;;;;;;;25.10;12.20;;;;;;;3.67;60.45;101093.41;5399943;32;33947;-69
2022/01/17 01:11:27;;;;;;;25.60;11.60;;;;;;;4.10;59.37;101095.97;5401019;32;34441;-69
2022/01/17 01:14:29;;;;;;;25.30;11.40;;;;;;;3.89;60.30;101085.59;5397369;32;34106;-68
2022/01/17 01:17:47;;;;;;;22.67;11.13;;;;;;;4.10;59.49;101089.91;5411406;32;34091;-69
2022/01/17 01:21:08;;;;;;;23.97;12.00;;;;;;;3.72;60.51;101089.06;5396084;32;44993;-67
2022/01/17 01:27:46;;;;;;;21.80;10.60;;;;;;;3.72;60.51;101081.25;5411448;32;35854;-67
2022/01/17 01:30:52;;;;;;;24.63;11.93;;;;;;;4.11;59.13;101071.69;5409963;32;44664;-68
2022/01/17 01:33:56;;;;;;;25.17;11.80;;;;;;;3.76;60.80;101080.41;5413444;32;34209;-69
2022/01/17 01:36:58;;;;;;;22.60;10.27;;;;;;;3.77;60.50;101069.12;5415713;32;35513;-68
2022/01/17 01:40:00;;;;;;;24.93;10.60;;;;;;;3.66;60.98;101068.25;5396810;32;34092;-68
2022/01/17 01:43:02;;;;;;;24.23;10.80;;;;;;;4.22;59.22;101063.87;5416078;32;34305;-68
2022/01/17 01:46:05;;;;;;;22.60;11.30;;;;;;;4.50;58.53;101054.22;5410038;32;34162;-68
2022/01/17 01:49:08;;;;;;;23.63;11.87;;;;;;;4.52;59.11;101050.78;5415341;32;34750;-68
2022/01/17 01:52:10;;;;;;;23.97;11.73;;;;;;;5.12;56.10;101056.53;5411154;32;34973;-67
2022/01/17 01:55:15;;;;;;;24.63;11.83;;;;;;;5.72;55.05;101041.31;5394509;32;35240;-67
2022/01/17 01:58:17;;;;;;;20.67;9.83;;;;;;;4.26;58.83;101055.19;5402812;32;44362;-68
2022/01/17 02:01:19;;;;;;;21.83;10.03;;;;;;;4.27;59.07;101063.00;5386153;32;34408;-68
2022/01/17 02:04:22;;;;;;;19.73;8.83;;;;;;;5.35;55.87;101058.16;5413307;32;34773;-68
2022/01/17 02:07:24;;;;;;;17.93;8.63;;;;;;;4.62;57.40;101059.41;5410182;32;34484;-68
2022/01/17 02:10:26;;;;;;;21.40;10.37;;;;;;;3.71;60.53;101066.53;5412006;32;34377;-68
2022/01/17 02:13:28;;;;;;;19.57;9.57;;;;;;;3.85;60.27;101060.44;5391617;32;33106;-69
2022/01/17 02:16:31;;;;;;;20.00;9.33;;;;;;;3.96;59.83;101056.97;5400564;32;34015;-67
2022/01/17 02:19:34;;;;;;;20.03;8.70;;;;;;;4.17;59.33;101042.19;5416245;32;37035;-68
2022/01/17 02:22:39;;;;;;;20.27;9.95;;;;;;;4.67;57.79;101042.03;5409191;32;35126;-68
2022/01/17 02:25:41;;;;;;;21.67;9.90;;;;;;;4.27;59.35;101046.53;5414629;32;34830;-68
2022/01/17 02:28:45;;;;;;;24.30;11.53;;;;;;;4.22;59.25;101041.31;5411212;32;35225;-68
2022/01/17 02:31:48;;;;;;;22.57;10.03;;;;;;;5.17;56.33;101038.28;5413844;32;44960;-68
2022/01/17 02:34:50;;;;;;;20.77;9.40;;;;;;;5.56;54.97;101042.34;5383556;32;34582;-68
2022/01/17 02:37:53;;;;;;;18.77;7.97;;;;;;;4.85;56.61;101041.94;5394715;32;35135;-67
2022/01/17 02:40:55;;;;;;;17.50;7.40;;;;;;;4.60;57.76;101040.31;5415627;32;35188;-68
2022/01/17 02:44:00;;;;;;;19.50;9.10;;;;;;;4.72;56.99;101037.66;5377338;32;35662;-68
2022/01/17 02:47:03;;;;;;;17.70;7.17;;;;;;;4.94;56.60;101043.63;5413977;32;34605;-67
2022/01/17 02:50:05;;;;;;;17.50;7.83;;;;;;;4.98;56.13;101036.66;5410482;32;36333;-67
2022/01/17 02:53:09;;;;;;;17.03;7.40;;;;;;;4.88;56.02;101034.09;5413816;32;34842;-68
2022/01/17 02:56:11;;;;;;;16.45;7.15;;;;;;;4.76;56.90;101041.09;5383979;32;35559;-68
2022/01/17 02:59:13;;;;;;;15.87;7.97;;;;;;;4.58;57.07;101023.84;5390416;32;36204;-68
2022/01/17 03:02:15;;;;;;;13.47;7.10;;;;;;;4.87;55.91;101011.53;5408722;32;34674;-68
2022/01/17 03:05:19;;;;;;;16.73;7.20;;;;;;;5.08;55.17;101014.88;5393309;32;45051;-68
2022/01/17 03:08:23;;;;;;;16.93;6.93;;;;;;;5.05;55.67;101017.50;5402668;32;34785;-67
2022/01/17 03:11:27;;;;;;;;;;;;;;;4.45;56.76;101019.56;5395677;32;34213;-68
2022/01/17 03:14:29;;;;;;;17.80;7.03;;;;;;;4.58;56.81;101011.69;5411681;32;34721;-67
2022/01/17 03:17:31;;;;;;;17.83;7.57;;;;;;;4.58;56.63;101021.25;5398274;32;34348;-68
2022/01/17 03:20:37;;;;;;;13.17;6.87;;;;;;;4.68;56.17;101022.91;5393810;32;34237;-68
2022/01/17 03:23:40;;;;;;;13.83;6.57;;;;;;;4.96;55.54;101013.22;5415351;32;36168;-68
2022/01/17 03:26:42;;;;;;;12.97;6.73;;;;;;;5.07;54.91;101013.16;5408910;32;34673;-67
2022/01/17 03:29:44;;;;;;;15.57;7.40;;;;;;;4.69;55.85;101008.16;5413342;32;34044;-68
2022/01/17 03:32:46;;;;;;;14.77;6.03;;;;;;;4.66;56.02;101013.41;5394884;32;44759;-68
2022/01/17 03:35:49;;;;;;;16.10;6.73;;;;;;;4.94;55.04;100993.25;5404313;32;34375;-68
2022/01/17 03:38:51;;;;;;;15.63;5.60;;;;;;;4.37;56.49;101000.50;5404301;32;34339;-68
2022/01/17 03:41:53;;;;;;;13.27;5.83;;;;;;;4.84;55.17;100989.87;5400841;32;34814;-69
2022/01/17 03:44:55;;;;;;;15.13;6.60;;;;;;;4.72;55.49;100992.53;5414776;32;33987;-69
2022/01/17 03:47:57;;;;;;;12.17;5.93;;;;;;;5.03;54.86;101014.91;5408779;32;34131;-69
2022/01/17 03:51:01;;;;;;;13.03;6.37;;;;;;;5.23;54.30;101020.00;5386202;32;34769;-68
2022/01/17 03:54:03;;;;;;;16.98;7.12;;;;;;;4.62;56.12;101012.53;5411624;32;35471;-69
2022/01/17 03:57:05;;;;;;;14.37;5.43;;;;;;;5.43;52.89;101012.03;5381585;32;34931;-69
2022/01/17 04:00:09;;;;;;;14.87;6.30;;;;;;;5.79;52.26;101008.22;5384604;32;34489;-68
2022/01/17 04:03:11;;;;;;;15.40;6.60;;;;;;;4.71;54.68;100994.28;5391564;32;34540;-69
2022/01/17 04:06:15;;;;;;;12.00;5.70;;;;;;;4.70;55.18;100986.44;5397734;32;35626;-69
2022/01/17 04:09:17;;;;;;;12.77;6.37;;;;;;;5.31;53.18;100986.06;5406291;32;46458;-68
2022/01/17 04:12:19;;;;;;;13.93;6.77;;;;;;;5.54;52.97;101006.69;5415292;32;33877;-67
2022/01/17 04:15:22;;;;;;;14.30;6.40;;;;;;;5.04;54.36;101010.56;5413030;32;34081;-68
2022/01/17 04:18:24;;;;;;;13.57;6.23;;;;;;;5.32;53.56;101017.31;5412057;32;34117;-69
2022/01/17 04:21:32;;;;;;;12.17;6.30;;;;;;;5.69;52.50;101011.78;5417109;32;37140;-69
2022/01/17 04:24:34;;;;;;;13.37;6.47;;;;;;;5.77;52.48;101017.81;5411061;32;34158;-69
2022/01/17 04:27:36;;;;;;;14.43;6.50;;;;;;;5.36;53.29;101031.19;5415154;32;34163;-69
2022/01/17 04:30:39;;;;;;;13.50;6.43;;;;;;;5.57;53.14;101031.03;5394147;32;36583;-68
2022/01/17 04:33:41;;;;;;;14.90;6.67;;;;;;;4.83;54.76;101021.97;5401282;32;35000;-67
2022/01/17 04:36:43;;;;;;;15.10;7.40;;;;;;;5.31;53.93;101005.16;5413117;32;34597;-67
2022/01/17 04:39:45;;;;;;;15.50;6.80;;;;;;;5.11;54.76;100994.03;5410415;32;33983;-67
2022/01/17 04:42:49;;;;;;;15.17;6.77;;;;;;;5.36;53.81;100977.31;5415894;32;44429;-68
2022/01/17 04:45:51;;;;;;;14.87;6.73;;;;;;;4.56;55.89;100978.72;5396832;32;34059;-68
2022/01/17 04:48:54;;;;;;;16.23;7.23;;;;;;;4.77;55.84;100978.63;5415841;32;34260;-68
2022/01/17 04:51:56;;;;;;;15.53;6.77;;;;;;;5.26;54.60;100996.50;5411630;32;33837;-68
2022/01/17 04:55:02;;;;;;;14.90;7.00;;;;;;;5.19;54.68;100997.44;5360867;32;33571;-67
2022/01/17 04:58:04;;;;;;;16.97;7.40;;;;;;;5.41;54.23;100987.72;5396985;32;34692;-68
2022/01/17 05:01:06;;;;;;;14.27;7.07;;;;;;;5.18;54.40;100993.09;5403133;32;35523;-67
2022/01/17 05:04:08;;;;;;;18.83;7.43;;;;;;;5.04;54.96;100992.34;5414586;32;34792;-68
2022/01/17 05:07:14;;;;;;;17.17;7.13;;;;;;;5.12;54.96;100977.50;5410869;32;35338;-67
2022/01/17 05:10:17;;;;;;;16.93;7.60;;;;;;;4.79;55.88;100969.03;5413622;32;44396;-68
2022/01/17 05:13:31;;;;;;;14.60;7.73;;;;;;;5.86;52.85;100957.72;5411957;32;34883;-67
2022/01/17 05:16:38;;;;;;;17.58;7.28;;;;;;;4.98;55.09;100948.09;5399639;32;34128;-68
2022/01/17 05:19:49;;;;;;;15.80;6.70;;;;;;;5.11;54.52;100960.16;5415610;32;35025;-68
2022/01/17 05:22:51;;;;;;;13.93;6.20;;;;;;;4.91;55.05;100957.69;5397183;32;45340;-68
2022/01/17 05:25:53;;;;;;;14.73;6.30;;;;;;;5.54;53.31;100954.56;5401689;32;34494;-68
2022/01/17 05:28:56;;;;;;;14.97;6.97;;;;;;;5.57;52.90;100947.56;5388858;32;34205;-68
2022/01/17 05:31:58;;;;;;;14.23;6.60;;;;;;;5.65;52.70;100960.53;5407206;32;35722;-68
2022/01/17 05:35:00;;;;;;;14.20;6.37;;;;;;;5.93;52.25;100959.41;5412523;32;34011;-68
2022/01/17 05:38:02;;;;;;;14.50;6.60;;;;;;;5.03;54.16;100959.34;5394809;32;34744;-68
2022/01/17 05:41:05;;;;;;;13.27;6.20;;;;;;;5.17;53.98;100965.31;5409001;32;34053;-68
2022/01/17 05:44:07;;;;;;;15.17;6.27;;;;;;;5.86;52.14;100952.50;5410260;32;34291;-68
2022/01/17 05:47:09;;;;;;;12.43;5.73;;;;;;;5.94;52.07;100955.94;5414744;32;34000;-68
2022/01/17 05:50:12;;;;;;;15.67;6.60;;;;;;;6.01;51.51;100955.84;5408259;32;34158;-68
2022/01/17 05:53:14;;;;;;;14.50;7.20;;;;;;;6.03;51.67;100956.69;5399892;32;34264;-68
2022/01/17 05:56:16;;;;;;;13.70;5.77;;;;;;;5.89;51.45;100936.81;5385383;32;45159;-68
2022/01/17 05:59:18;;;;;;;14.30;6.10;;;;;;;6.18;50.87;100951.28;5391709;32;35021;-68
2022/01/17 06:02:21;;;;;;;15.90;6.40;;;;;;;5.87;51.50;100943.78;5410063;32;34163;-68
2022/01/17 06:05:24;;;;;;;14.43;6.28;;;;;;;6.64;49.38;100948.09;5408253;32;34510;-68
2022/01/17 06:08:26;;;;;;;11.97;5.77;;;;;;;6.05;50.61;100949.69;5397268;32;34490;-69
2022/01/17 06:11:28;;;;;;;13.63;6.03;;;;;;;6.29;50.16;100956.38;5404309;32;34032;-68
2022/01/17 06:14:31;;;;;;;13.97;5.67;;;;;;;6.38;49.72;100956.28;5413667;32;36474;-68
2022/01/17 06:17:33;;;;;;;14.63;6.30;;;;;;;6.54;49.25;100957.78;5396980;32;34733;-68
2022/01/17 06:20:35;;;;;;;14.20;5.77;;;;;;;6.81;48.61;100967.00;5404929;32;34449;-68
2022/01/17 06:23:37;;;;;;;12.13;5.50;;;;;;;6.99;47.72;100948.44;5410371;32;34686;-69
2022/01/17 06:26:41;;;;;;;11.13;4.97;;;;;;;6.86;48.07;100956.47;5397772;32;34702;-69
2022/01/17 06:29:44;;;;;;;13.27;5.60;;;;;;;6.32;49.36;100954.63;5413336;32;37402;-70
2022/01/17 06:32:46;;;;;;;12.03;5.50;;;;;;;6.10;50.32;100958.34;5396647;32;44500;-69
2022/01/17 06:35:48;;;;;;;11.00;5.23;;;;;;;6.17;49.94;100954.78;5413529;32;34118;-69
2022/01/17 06:38:50;;;;;;;9.30;4.20;;;;;;;6.55;48.51;100961.28;5386463;32;34290;-66
2022/01/17 06:41:52;;;;;;;13.70;5.77;;;;;;;6.05;50.04;100955.78;5403395;32;35149;-70
2022/01/17 06:44:54;;;;;;;11.40;4.70;;;;;;;5.77;50.45;100929.13;5394012;32;36653;-71
2022/01/17 06:47:56;;;;;;;13.87;5.03;;;;;;;6.20;49.61;100920.84;5388770;32;35141;-73
2022/01/17 06:50:59;;;;;;;12.10;5.30;;;;;;;5.61;50.53;100924.97;5400426;32;33740;-71
2022/01/17 06:54:02;;;;;;;12.17;4.83;;;;;;;6.09;50.03;100930.53;5402034;32;34209;-72
2022/01/17 06:57:04;;;;;;;11.93;4.70;;;;;;;6.40;48.95;100947.53;5368954;32;34725;-71
2022/01/17 07:00:09;;;;;;;14.10;4.83;;;;;;;6.08;49.53;100953.16;5412501;32;35072;-64
2022/01/17 07:03:11;;;;;;;11.67;5.07;;;;;;;6.13;49.34;100937.44;5406481;32;35788;-73
2022/01/17 07:06:14;;;;;;;10.53;4.87;;;;;;;6.79;48.70;100926.97;5414239;32;34412;-69
2022/01/17 07:09:19;;;;;;;11.70;4.83;;;;;;;7.05;47.62;100924.81;5405101;32;44650;-69
2022/01/17 07:12:22;;;;;;;11.17;5.00;;;;;;;6.89;48.08;100918.13;5410016;32;34132;-69
2022/01/17 07:15:25;;;;;;;;;;;;;;;6.91;47.82;100899.78;5397791;32;34348;-67
2022/01/17 07:18:30;;;;;;;10.70;4.80;;;;;;;6.49;49.25;100881.25;5392831;32;34287;-65
2022/01/17 07:21:32;;;;;;;10.07;4.93;;;;;;;6.22;50.26;100892.94;5413899;32;35113;-67
2022/01/17 07:24:36;;;;;;;12.80;5.50;;;;;;;6.72;49.11;100894.00;5409615;32;34062;-66
2022/01/17 07:27:40;;;;;;;9.68;4.80;;;;;;;6.98;48.52;100901.41;5410566;32;33825;-66
2022/01/17 07:30:42;;;;;;;11.13;5.17;;;;;;;6.60;49.57;100917.69;5410027;32;35911;-68
2022/01/17 07:33:44;;;;;;;14.40;5.80;;;;;;;6.25;50.09;100929.47;5415463;32;34281;-71
2022/01/17 07:36:47;;;;;;;9.50;4.80;;;;;;;6.12;50.75;100952.25;5417202;32;44359;-67
2022/01/17 07:39:51;;;;;;;;;;;;;;;5.79;51.94;100976.91;5392282;32;35384;-64
2022/01/17 07:42:53;;;;;;;12.97;5.17;;;;;;;6.38;50.26;100998.94;5414665;32;35147;-72
2022/01/17 07:46:05;;;;;;;11.47;4.93;;;;;;;6.55;50.36;101027.44;5401122;32;35909;-63
2022/01/17 07:49:10;;;;;;;14.33;5.53;;;;;;;6.38;50.67;101053.75;5400065;32;34447;-66
2022/01/17 07:52:13;;;;;;;10.17;4.77;;;;;;;7.17;48.45;101030.94;5412648;32;34030;-64
2022/01/17 07:55:17;;;;;;;9.30;4.33;;;;;;;6.68;49.65;100987.19;5379712;32;34325;-68
2022/01/17 07:58:19;;;;;;;10.27;4.97;;;;;;;6.06;51.44;100959.28;5396033;32;44492;-67
2022/01/17 08:01:21;;;;;;;45.47;8.73;;;;;;;6.17;50.94;100946.94;5410715;32;35771;-73
2022/01/17 08:04:25;;;;;;;11.90;5.37;;;;;;;6.17;51.52;100937.38;5414909;32;34395;-78
2022/01/17 08:07:28;;;;;;;12.95;4.62;;;;;;;6.46;50.10;100949.22;5400261;32;34246;-70
2022/01/17 08:10:33;;;;;;;9.90;4.57;;;;;;;6.53;50.48;100937.78;5410271;32;34092;-72
2022/01/17 08:13:35;;;;;;;119.05;15.25;;;;;;;6.69;49.99;100925.37;5402308;32;33939;-76
2022/01/17 08:16:38;;;;;;;13.67;4.70;;;;;;;6.28;51.06;100907.66;5414305;32;34154;-72
2022/01/17 08:19:43;;;;;;;11.10;4.60;;;;;;;6.01;52.00;100882.78;5399759;32;33841;-69
2022/01/17 08:22:45;;;;;;;19.33;5.17;;;;;;;5.90;52.38;100872.44;5413163;32;34000;-72
2022/01/17 08:25:48;;;;;;;9.40;4.50;;;;;;;6.52;50.69;100847.28;5411904;32;43719;-74
2022/01/17 08:28:54;;;;;;;10.50;4.37;;;;;;;6.20;51.54;100853.81;5399848;32;36506;-71
2022/01/17 08:31:59;;;;;;;10.20;4.13;;;;;;;6.00;52.09;100858.44;5414162;32;33763;-74
2022/01/17 08:35:02;;;;;;;10.03;4.00;;;;;;;6.26;51.22;100876.38;5383982;32;34305;-65
2022/01/17 08:38:05;;;;;;;10.50;4.53;;;;;;;6.68;50.61;100882.72;5413370;32;34126;-67
2022/01/17 08:41:07;;;;;;;9.37;4.00;;;;;;;6.29;51.41;100893.72;5414119;32;35210;-65
2022/01/17 08:44:10;;;;;;;10.80;5.47;;;;;;;6.48;51.26;100916.97;5412698;32;34027;-65
2022/01/17 08:47:12;;;;;;;8.95;4.20;;;;;;;6.43;51.57;100941.41;5401377;32;34206;-66
2022/01/17 08:50:16;;;;;;;9.97;4.30;;;;;;;6.72;50.35;100938.41;5401577;32;34001;-65
2022/01/17 08:53:19;;;;;;;10.57;4.50;;;;;;;7.27;49.25;100981.97;5396886;32;44290;-65
2022/01/17 08:56:21;;;;;;;9.67;4.10;;;;;;;6.57;50.62;100963.00;5373825;32;33777;-70
2022/01/17 08:59:23;;;;;;;9.40;4.63;;;;;;;6.95;49.87;100943.25;5406170;32;33246;-68
2022/01/17 09:02:25;;;;;;;10.23;4.50;;;;;;;6.97;50.26;100925.84;5384181;32;34038;-66
2022/01/17 09:05:29;;;;;;;10.40;3.97;;;;;;;6.58;51.42;100885.50;5407075;32;34921;-70
2022/01/17 09:08:31;;;;;;;16.20;4.30;;;;;;;6.41;52.72;100904.87;5409844;32;35664;-72
2022/01/17 09:11:34;;;;;;;13.60;4.13;;;;;;;6.11;53.25;100868.72;5405543;32;34122;-71
2022/01/17 09:14:37;;;;;;;12.47;4.70;;;;;;;6.27;53.47;100864.19;5406392;32;35566;-64
2022/01/17 09:17:39;;;;;;;10.45;4.43;;;;;;;6.38;52.76;100842.28;5400323;32;34982;-65
2022/01/17 09:20:42;;;;;;;10.00;4.67;;;;;;;6.66;52.08;100873.19;5400836;32;34396;-70
2022/01/17 09:23:48;;;;;;;10.00;4.93;;;;;;;6.48;52.17;100824.69;5411811;32;36443;-69
2022/01/17 09:26:50;;;;;;;11.07;4.67;;;;;;;6.33;52.50;100835.38;5410350;32;34690;-73
2022/01/17 09:29:53;;;;;;;13.40;4.90;;;;;;;6.57;51.90;100823.69;5414542;32;36850;-71
2022/01/17 09:32:55;;;;;;;14.87;4.77;;;;;;;6.82;51.57;100811.09;5397183;32;33975;-70
2022/01/17 09:35:57;;;;;;;12.53;5.27;;;;;;;7.30;50.42;100830.28;5407036;32;33994;-73
2022/01/17 09:39:01;;;;;;;15.77;5.27;;;;;;;6.75;51.79;100803.34;5402591;32;34178;-70
2022/01/17 09:42:08;;;;;;;11.63;5.12;;;;;;;6.99;51.00;100799.47;5396491;32;35353;-70
2022/01/17 09:45:14;;;;;;;11.80;4.77;;;;;;;7.66;49.42;100789.44;5397544;32;35264;-72
2022/01/17 09:48:20;;;;;;;11.50;4.87;;;;;;;7.67;49.25;100746.72;5410577;32;42768;-71
2022/01/17 09:52:02;;;;;;;12.17;5.20;;;;;;;6.84;51.33;100730.94;5398103;32;34492;-69
2022/01/17 09:55:13;;;;;;;10.53;4.83;;;;;;;6.78;52.12;100721.47;5391303;32;35569;-73
2022/01/17 09:58:15;;;;;;;13.57;5.50;;;;;;;6.76;52.07;100723.22;5392777;32;35644;-68
2022/01/17 10:01:18;;;;;;;12.63;5.40;;;;;;;6.92;51.19;100719.47;5407236;32;44450;-68
2022/01/17 10:04:23;;;;;;;11.10;5.27;;;;;;;6.58;52.51;100734.03;5408308;32;35453;-67
2022/01/17 10:07:51;;;;;;;14.00;5.57;;;;;;;6.43;52.71;100742.97;5411982;32;34018;-66
2022/01/17 10:10:57;;;;;;;10.53;5.57;;;;;;;6.60;52.70;100732.25;5407920;32;46281;-74
2022/01/17 10:13:59;;;;;;;12.23;5.47;;;;;;;6.56;52.96;100746.22;5406474;32;34040;-65
2022/01/17 10:17:05;;;;;;;14.50;6.00;;;;;;;6.49;53.13;100737.63;5397566;32;35337;-63
2022/01/17 10:20:09;;;;;;;12.77;6.10;;;;;;;6.02;54.36;100738.41;5388900;32;33871;-62
2022/01/17 10:23:16;;;;;;;;;;;;;;;7.33;51.30;100720.38;5415382;32;33960;-70
2022/01/17 10:26:39;;;;;;;11.93;5.40;;;;;;;5.91;54.41;100721.13;5390095;32;44523;-70
2022/01/17 10:36:46;;;;;;;10.67;5.53;;;;;;;6.15;54.20;100683.38;5400468;32;34199;-66
2022/01/17 10:40:09;;;;;;;16.97;6.57;;;;;;;6.68;52.96;100678.09;5407398;32;45713;-66
2022/01/17 10:43:28;;;;;;;15.90;6.27;;;;;;;6.28;53.92;100675.34;5411267;32;35220;-66
2022/01/17 10:46:30;;;;;;;13.37;5.63;;;;;;;6.61;53.40;100666.06;5407445;32;34040;-66
2022/01/17 10:50:07;;;;;;;12.57;5.90;;;;;;;6.48;53.56;100676.72;5400338;32;33999;-66
2022/01/17 10:53:12;;;;;;;16.83;6.60;;;;;;;7.07;52.31;100681.69;5389130;32;36997;-66
2022/01/17 10:56:17;;;;;;;16.03;6.53;;;;;;;7.40;51.06;100676.66;5384791;32;44574;-67
2022/01/17 10:59:28;;;;;;;17.00;6.90;;;;;;;6.50;53.91;100666.25;5406207;32;34060;-68
2022/01/17 11:02:30;;;;;;;12.60;5.50;;;;;;;6.22;54.22;100658.03;5375368;32;35026;-68
2022/01/17 11:05:33;;;;;;;14.97;6.87;;;;;;;6.16;54.84;100627.69;5397737;32;35733;-69
2022/01/17 11:08:40;;;;;;;14.02;6.65;;;;;;;6.51;54.13;100608.78;5387364;32;36990;-72
2022/01/17 11:11:47;;;;;;;10.97;4.40;;;;;;;6.75;53.11;100632.69;5413337;32;34601;-72
2022/01/17 11:14:50;;;;;;;14.20;5.17;;;;;;;7.07;52.35;100632.91;5413816;32;44310;-71
2022/01/17 11:17:56;;;;;;;11.87;5.17;;;;;;;6.86;52.97;100611.59;5412449;32;34457;-71
2022/01/17 11:21:10;;;;;;;11.10;4.83;;;;;;;6.86;53.50;100619.44;5411840;32;35294;-70
2022/01/17 11:24:12;;;;;;;;;;;;;;;7.50;51.21;100597.97;5412754;32;34608;-69
2022/01/17 11:27:14;;;;;;;9.97;4.27;;;;;;;7.18;51.75;100584.78;5414600;32;34705;-70
2022/01/17 11:30:17;;;;;;;10.73;4.10;;;;;;;7.32;51.19;100598.41;5389513;32;43383;-75
2022/01/17 11:33:20;;;;;;;10.70;4.73;;;;;;;7.62;50.60;100582.91;5396565;32;33910;-73
2022/01/17 11:36:23;;;;;;;9.45;3.60;;;;;;;7.34;51.42;100607.06;5403559;32;35650;-65
2022/01/17 11:39:26;;;;;;;9.63;3.90;;;;;;;7.37;50.98;100599.16;5394922;32;32816;-65
2022/01/17 11:42:38;;;;;;;12.13;3.33;;;;;;;7.47;50.24;100611.16;5412356;32;35444;-69
2022/01/17 12:16:30;;;;;;;7.87;3.47;;;;;;;7.75;49.17;100537.22;5432225;32;35362;-74
2022/01/17 12:19:34;;;;;;;7.47;3.33;;;;;;;7.38;50.36;100569.50;5389770;32;33572;-72
2022/01/17 12:22:43;;;;;;;8.40;3.83;;;;;;;7.75;49.47;100540.72;5391313;32;35868;-71
2022/01/17 12:39:37;;;;;;;9.02;3.40;;;;;;;7.58;50.09;100511.47;5344925;32;35469;-76
2022/01/17 17:04:58;;;;;;;12.50;3.80;;;;;;;6.03;62.68;100646.19;5232667;33;35479;-78
2022/01/17 18:54:47;;;;;;;6.43;1.03;;;;;;;3.77;62.72;100933.06;5327954;32;35416;-71
2022/01/17 18:57:49;;;;;;;3.40;1.00;;;;;;;3.76;63.19;100934.81;5364623;32;35721;-69
2022/01/17 19:00:51;;;;;;;3.27;1.40;;;;;;;3.92;62.97;100951.22;5373911;32;34555;-72
2022/01/17 19:03:54;;;;;;;4.77;1.00;;;;;;;3.73;63.65;100955.59;5357019;32;35175;-72
2022/01/17 19:06:58;;;;;;;1.73;0.90;;;;;;;3.35;65.19;100952.19;5374780;32;35161;-73
2022/01/17 19:10:01;;;;;;;3.03;1.13;;;;;;;3.65;63.91;100959.94;5357648;32;34664;-71
2022/01/17 19:13:03;;;;;;;3.67;1.23;;;;;;;3.72;63.90;100959.06;5385674;32;35253;-71
2022/01/17 19:16:06;;;;;;;2.47;1.10;;;;;;;3.70;63.31;100960.81;5369389;32;35988;-70
2022/01/17 19:22:11;;;;;;;2.20;1.00;;;;;;;3.16;64.00;100948.75;5373617;32;34801;-71
2022/01/17 19:25:13;;;;;;;6.40;1.27;;;;;;;3.55;63.84;100981.63;5374854;32;36008;-71
2022/01/17 19:28:16;;;;;;;2.47;1.33;;;;;;;3.49;63.01;100998.09;5370938;32;34630;-70
2022/01/17 19:31:19;;;;;;;3.28;1.27;;;;;;;3.45;63.82;100990.28;5366415;32;44404;-70
2022/01/17 19:34:22;;;;;;;2.17;1.10;;;;;;;2.96;65.56;100998.03;5370024;32;35891;-70
2022/01/17 19:37:26;;;;;;;3.83;1.57;;;;;;;3.37;64.60;100997.25;5366438;32;35017;-72
2022/01/17 19:40:31;;;;;;;4.32;1.30;;;;;;;3.69;64.49;100992.00;5373009;32;36542;-72
2022/01/17 19:43:33;;;;;;;1.80;0.90;;;;;;;3.13;65.55;100992.87;5369474;32;34477;-70
2022/01/17 19:46:35;;;;;;;3.40;1.10;;;;;;;2.88;65.95;101002.38;5369471;32;35373;-72
2022/01/17 19:49:38;;;;;;;2.73;1.43;;;;;;;2.84;66.39;101011.03;5382072;32;35210;-69
2022/01/17 19:52:40;;;;;;;2.37;1.00;;;;;;;2.86;66.47;101027.47;5367815;32;34816;-69
2022/01/17 19:55:44;;;;;;;2.23;1.20;;;;;;;2.97;65.56;101044.81;5349803;32;35279;-72
2022/01/17 19:58:46;;;;;;;;;;;;;;;2.91;66.07;101047.41;5356566;32;44585;-70
2022/01/17 20:01:48;;;;;;;2.43;1.40;;;;;;;2.81;65.68;101073.31;5361718;32;34626;-72
2022/01/17 20:04:50;;;;;;;2.23;1.13;;;;;;;2.61;65.68;101086.22;5365562;32;34412;-72
2022/01/17 20:07:53;;;;;;;1.33;1.00;;;;;;;2.89;64.52;101084.56;5366305;32;35810;-71
2022/01/17 20:10:55;;;;;;;2.77;1.20;;;;;;;2.79;64.67;101095.81;5369439;32;34522;-71
2022/01/17 20:13:58;;;;;;;3.03;1.20;;;;;;;3.06;64.03;101095.91;5365386;32;35289;-70
2022/01/17 20:17:00;;;;;;;2.93;1.47;;;;;;;2.80;63.96;101110.53;5371648;32;34560;-70
2022/01/17 20:20:03;;;;;;;2.33;1.23;;;;;;;2.95;63.82;101118.34;5363781;32;35108;-69
2022/01/17 20:23:06;;;;;;;3.03;1.27;;;;;;;2.88;62.21;101127.00;5379574;32;33440;-70
2022/01/17 20:26:09;;;;;;;3.77;1.17;;;;;;;2.84;60.90;101130.47;5379447;32;35699;-71
2022/01/17 20:29:11;;;;;;;4.27;1.30;;;;;;;3.04;59.88;101134.00;5362405;32;35433;-68
2022/01/17 20:32:13;;;;;;;2.60;1.20;;;;;;;3.19;58.50;101149.63;5365238;32;34621;-71
2022/01/17 20:35:16;;;;;;;1.70;0.90;;;;;;;3.25;57.14;101160.03;5363855;32;35162;-71
2022/01/17 20:38:19;;;;;;;3.12;1.23;;;;;;;3.03;56.74;101167.72;5370197;32;46673;-70
2022/01/17 20:41:21;;;;;;;4.07;1.43;;;;;;;3.33;54.98;101172.16;5369545;32;35705;-71
2022/01/17 20:44:23;;;;;;;2.97;1.37;;;;;;;3.32;54.42;101170.44;5360323;32;35160;-72
2022/01/17 20:47:25;;;;;;;3.57;1.23;;;;;;;3.01;54.66;101175.53;5369388;32;33805;-70
2022/01/17 20:50:28;;;;;;;3.33;1.20;;;;;;;3.13;53.91;101182.50;5373020;32;34906;-69
2022/01/17 20:53:30;;;;;;;1.30;0.87;;;;;;;3.38;52.06;101189.53;5370538;32;34523;-73
2022/01/17 20:56:33;;;;;;;4.57;1.07;;;;;;;2.96;51.83;101192.81;5338062;32;35536;-70
2022/01/17 20:59:35;;;;;;;4.90;1.20;;;;;;;3.19;50.97;101183.38;5362801;32;33184;-72
2022/01/17 21:02:39;;;;;;;3.27;1.00;;;;;;;2.97;49.66;101184.19;5366157;32;35439;-71
2022/01/17 21:05:42;;;;;;;3.00;1.77;;;;;;;3.09;48.88;101171.25;5355982;32;34585;-70
2022/01/17 21:08:45;;;;;;;3.80;1.10;;;;;;;3.02;48.42;101172.06;5370029;32;34607;-71
2022/01/17 21:11:48;;;;;;;6.07;1.10;;;;;;;3.00;47.58;101168.59;5365285;32;43153;-69
2022/01/17 21:14:50;;;;;;;2.27;1.00;;;;;;;3.10;46.86;101185.97;5378738;32;34490;-69
2022/01/17 21:17:53;;;;;;;3.47;1.27;;;;;;;3.32;46.59;101192.09;5377223;32;35294;-70
2022/01/17 21:20:55;;;;;;;3.40;1.20;;;;;;;3.28;47.51;101194.66;5373711;32;34507;-70
2022/01/17 21:23:58;;;;;;;4.87;1.10;;;;;;;3.26;46.82;101218.06;5366766;32;35075;-70